• Join FlightAware (Why Join?)
  • Login
  • US Flag 
02:15AM EDT


 

Airport Tracker/Info


-or-


 

Live Flight TrackerFlight Track Log ✈ AAY894 ✈ 30-Mar-2014 ✈ KPIE - KIAG

Flight Track Log - Related Links

Times and Time Zones

All times are in EDT time to prevent confusion due to time zone crossing. See the AAY894 flight status page for this flight to view local times or setup timezone preferences in your user account.

Time Position Orientation Groundspeed Altitude Reporting Facility
EDT Latitude Longitude Course Direction KTS MPH feet Rate Location/Type
08:25AM 27.9333 -82.7000 24° Northeast 156 180 700  Level Tampa TRACON
08:25AM 27.9667 -82.6833 24° Northeast 179 206 1,900 1,800 Climbing Tampa TRACON
08:26AM 28.0167 -82.6667 16° North 233 268 3,600 2,040 Climbing Tampa TRACON
08:27AM 28.0833 -82.6500 12° North 265 305 5,800 2,160 Climbing Tampa TRACON
08:30AM 28.2456 -82.6097 12° North 290 334 10,600 1,740 Climbing Jacksonville Center
08:31AM 28.3394 -82.5883 11° North 305 351 11,700 1,200 Climbing Jacksonville Center
08:32AM 28.4458 -82.5667 10° North 346 398 13,100 1,560 Climbing Jacksonville Center
08:33AM 28.5564 -82.5642 North 378 435 14,900 1,860 Climbing Jacksonville Center
08:34AM 28.6692 -82.5969 346° North 396 456 16,900 1,740 Climbing Jacksonville Center
08:35AM 28.7717 -82.6225 348° North 402 463 18,400 1,560 Climbing Jacksonville Center
08:36AM 28.8886 -82.6556 346° North 420 483 20,100 1,680 Climbing Jacksonville Center
08:37AM 29.0094 -82.6717 353° North 425 489 21,800 1,440 Climbing Jacksonville Center
08:38AM 29.1369 -82.6667 North 437 503 23,000 1,380 Climbing Jacksonville Center
08:39AM 29.2664 -82.6592 North 448 516 24,600 1,560 Climbing Jacksonville Center
08:40AM 29.3936 -82.6494 North 453 521 26,200 1,560 Climbing Jacksonville Center
08:41AM 29.5208 -82.6397 North 458 527 27,800 1,500 Climbing Jacksonville Center
08:42AM 29.6419 -82.6322 North 453 521 29,300 1,200 Climbing Jacksonville Center
08:43AM 29.7653 -82.6244 North 447 514 30,200 780 Climbing Jacksonville Center
08:44AM 29.8903 -82.6169 North 442 509 30,900 360 Climbing Jacksonville Center
08:45AM 30.0114 -82.6094 North 442 509 31,000  Climbing Jacksonville Center
08:46AM 30.1389 -82.6019 North 442 509 31,000  Level Jacksonville Center
08:47AM 30.2619 -82.5992 North 442 509 31,000  Level Jacksonville Center
08:48AM 30.3872 -82.5867 North 442 509 31,000  Level Jacksonville Center
08:49AM 30.5147 -82.5814 North 442 509 31,000  Level Jacksonville Center
08:50AM 30.6419 -82.5689 North 442 509 31,000  Level Jacksonville Center
08:51AM 30.7692 -82.5614 North 447 514 31,000  Level Jacksonville Center
08:52AM 30.9050 -82.5511 North 447 514 31,000  Level Jacksonville Center
08:53AM 31.0322 -82.5458 North 447 514 31,000  Level Jacksonville Center
08:54AM 31.1575 -82.5356 North 447 514 31,000  Level Jacksonville Center
08:55AM 31.2808 -82.5303 North 447 514 31,000  Level Jacksonville Center
08:57AM 31.5097 -82.5092 North 480 552 31,000  Level Atlanta Center
08:58AM 31.6347 -82.4925 North 466 536 31,000  Level Atlanta Center
08:59AM 31.7658 -82.4731 North 461 531 31,000  Level Atlanta Center
09:00AM 31.8931 -82.4561 North 461 531 31,000  Level Atlanta Center
09:01AM 32.0200 -82.4344 North 461 531 31,000  Level Atlanta Center
09:02AM 32.1492 -82.4150 North 461 531 31,000 180 Level Atlanta Center
09:03AM 32.2886 -82.3853 10° North 461 531 31,400 840 Climbing Atlanta Center
09:04AM 32.4033 -82.3733 North 455 524 32,700 780 Climbing Atlanta Center
09:05AM 32.5242 -82.3539 North 449 517 33,000 120 Climbing Atlanta Center
09:06AM 32.6469 -82.3367 North 443 510 33,000  Level Atlanta Center
09:07AM 32.7697 -82.3119 10° North 443 510 33,000  Level Atlanta Center
09:08AM 32.8928 -82.2972 North 443 510 33,000  Level Atlanta Center
09:09AM 33.0133 -82.2725 10° North 443 510 33,000  Level Atlanta Center
09:10AM 33.1342 -82.2578 North 443 510 33,000  Level Atlanta Center
09:11AM 33.2550 -82.2328 10° North 443 510 33,000  Level Atlanta Center
09:12AM 33.3778 -82.2178 North 443 510 33,000  Level Atlanta Center
09:13AM 33.5006 -82.1928 10° North 443 510 33,000  Level Atlanta Center
09:14AM 33.6236 -82.1778 North 443 510 33,000  Level Atlanta Center
09:15AM 33.7589 -82.1497 10° North 449 517 33,000  Level Atlanta Center
09:16AM 33.8839 -82.1319 North 449 517 33,000  Level Atlanta Center
09:17AM 34.0086 -82.1067 10° North 444 511 33,000  Level Atlanta Center
09:18AM 34.1294 -82.0889 North 444 511 33,000  Level Atlanta Center
09:19AM 34.2542 -82.0583 11° North 444 511 33,000  Level Atlanta Center
09:20AM 34.3789 -82.0328 10° North 444 511 33,000  Level Atlanta Center
09:21AM 34.5058 -81.9994 12° North 449 517 33,000  Level Atlanta Center
09:22AM 34.6303 -81.9689 11° North 449 517 33,000  Level Atlanta Center
09:23AM 34.7572 -81.9328 13° North 449 517 33,000  Level Atlanta Center
09:24AM 34.8817 -81.9042 11° North 449 517 33,000  Level Atlanta Center
09:25AM 35.0086 -81.8756 10° North 455 524 33,000  Level Atlanta Center
09:26AM 35.1331 -81.8369 14° North 455 524 33,000  Level Atlanta Center
09:27AM 35.2578 -81.8133 North 450 518 33,000  Level Atlanta Center
09:28AM 35.3658 -81.7772 15° North 450 518 33,000  Level Atlanta Center
09:29AM 35.4925 -81.7508 10° North 450 518 33,000  Level Atlanta Center
09:30AM 35.6169 -81.7114 14° North 450 518 33,000  Level Atlanta Center
09:31AM 35.7414 -81.6822 11° North 450 518 33,000  Level Atlanta Center
09:32AM 35.8639 -81.6431 15° North 450 518 33,000  Level Atlanta Center
09:33AM 35.9842 -81.6136 11° North 450 518 33,000  Level Atlanta Center
09:34AM 36.1025 -81.5869 10° North 439 505 33,000  Level Atlanta Center
09:35AM 36.2186 -81.5525 13° North 432 497 33,000  Level Atlanta Center
09:36AM 36.3389 -81.5206 12° North 432 497 33,000  Level Atlanta Center
09:37AM 36.4614 -81.4883 12° North 432 497 33,000  Level Atlanta Center
09:38AM 36.5858 -81.4533 13° North 442 509 33,000  Level Atlanta Center
09:40AM 36.8494 -81.3844 12° North 454 522 33,000  Level Indianapolis Center
09:41AM 36.9714 -81.3408 16° North 460 529 33,000  Level Indianapolis Center
09:42AM 37.1119 -81.3094 10° North 459 528 33,000  Level Indianapolis Center
09:43AM 37.2347 -81.2689 15° North 458 527 33,000  Level Indianapolis Center
09:44AM 37.3583 -81.2400 11° North 456 525 33,000  Level Indianapolis Center
09:45AM 37.4789 -81.2056 13° North 456 525 33,000  Level Indianapolis Center
09:46AM 37.6275 -81.1694 11° North 458 527 33,000  Level Indianapolis Center
09:47AM 37.7478 -81.1306 14° North 458 527 33,000  Level Indianapolis Center
09:48AM 37.8850 -81.0953 11° North 458 527 33,000  Level Indianapolis Center
09:49AM 38.0069 -81.0539 15° North 458 527 33,000  Level Indianapolis Center
09:50AM 38.1303 -81.0247 11° North 456 525 33,000  Level Indianapolis Center
09:51AM 38.2519 -80.9836 15° North 456 525 33,000  Level Indianapolis Center
09:52AM 38.3758 -80.9528 11° North 456 525 33,000  Level Indianapolis Center
09:53AM 38.4972 -80.9119 15° North 456 525 33,000  Level Indianapolis Center
09:54AM 38.6439 -80.8744 11° North 454 522 33,000  Level Indianapolis Center
09:55AM 38.7647 -80.8331 15° North 453 521 33,000  Level Indianapolis Center
09:56AM 38.8883 -80.8033 11° North 453 521 33,000  Level Indianapolis Center
09:57AM 39.0103 -80.7603 15° North 453 521 33,000  Level Indianapolis Center
09:58AM 39.1297 -80.7094 18° North 453 521 33,000  Level Indianapolis Center
09:59AM 39.2508 -80.6625 17° North 453 521 33,000  Level Indianapolis Center
10:00AM 39.3719 -80.6083 19° North 456 525 33,000  Level Indianapolis Center
10:01AM 39.5189 -80.5506 17° North 457 526 33,000  Level Indianapolis Center
10:02AM 39.6375 -80.4939 20° North 457 526 33,000  Level Indianapolis Center
10:03AM 39.7383 -80.4606 14° North 456 525 33,000  Level Cleveland Center
10:04AM 39.8583 -80.4019 21° North 459 528 33,000  Level Cleveland Center
10:05AM 39.9817 -80.3544 16° North 463 533 33,000  Level Cleveland Center
10:06AM 40.1019 -80.2981 20° North 458 527 33,000  Level Cleveland Center
10:07AM 40.2253 -80.2489 17° North 461 531 33,000 -540 Level Cleveland Center
10:08AM 40.3642 -80.1836 20° North 462 532 32,000 -960 Descending Cleveland Center
10:09AM 40.4847 -80.1356 17° North 456 525 31,100 -540 Descending Cleveland Center
10:10AM 40.6017 -80.0806 20° North 453 521 31,000 -60 Descending Cleveland Center
10:11AM 40.7208 -80.0342 16° North 448 516 31,000 -420 Level Cleveland Center
10:12AM 40.8567 -79.9692 20° North 451 519 30,200 -1,020 Descending Cleveland Center
10:14AM 40.9742 -79.9267 15° North 443 510 29,000 -1,320 Descending Cleveland Center
10:15AM 41.0861 -79.8656 22° Northeast 439 505 27,600 -1,380 Descending Cleveland Center
10:16AM 41.2042 -79.8200 16° North 428 493 26,200 -1,380 Descending Cleveland Center
10:17AM 41.3117 -79.7672 20° North 419 482 24,800 -1,080 Descending Cleveland Center
10:18AM 41.4208 -79.7208 18° North 416 479 24,000 -420 Descending Cleveland Center
10:19AM 41.5317 -79.6697 19° North 419 482 24,000 -300 Level Cleveland Center
10:20AM 41.6428 -79.6197 19° North 420 483 23,500 -1,020 Descending Cleveland Center
10:21AM 41.7514 -79.5747 17° North 415 478 22,000 -1,980 Descending Cleveland Center
10:22AM 41.8797 -79.5119 20° North 408 470 19,500 -2,460 Descending Cleveland Center
10:23AM 41.9808 -79.4683 18° North 386 444 17,000 -1,980 Descending Cleveland Center
10:24AM 42.0769 -79.4239 19° North 372 428 15,500 -1,200 Descending Cleveland Center
10:25AM 42.1689 -79.3831 18° North 350 403 14,600 -1,080 Descending Cleveland Center
10:26AM 42.2578 -79.3375 21° North 345 397 13,400 -1,320 Descending Cleveland Center
10:27AM 42.3483 -79.2997 17° North 343 395 12,000 -1,200 Descending Cleveland Center
10:28AM 42.4281 -79.2581 21° North 311 358 11,000 -1,080 Descending Cleveland Center
10:29AM 42.5133 -79.2261 15° North 277 319 9,900 -1,200 Descending Cleveland Center
10:30AM 42.5789 -79.1931 20° North 244 281 8,600 -1,020 Descending Cleveland Center
10:31AM 42.6425 -79.1644 18° North 236 272 7,900 -900 Descending Cleveland Center
10:32AM 42.7000 -79.1358 20° North 232 267 6,800 -1,380 Descending Cleveland Center
10:33AM 42.7658 -79.1083 17° North 235 270 5,100 -1,380 Descending Cleveland Center
10:34AM 42.8272 -79.0761 21° North 233 268 4,000 -780 Descending Cleveland Center
10:35AM 42.8864 -79.0497 18° North 220 253 3,600 -660 Descending Cleveland Center
10:36AM 42.9411 -79.0189 22° Northeast 210 242 2,700 -540 Descending Cleveland Center
10:37AM 42.9958 -78.9994 15° North 210 242 2,600 -300 Descending Cleveland Center
10:38AM 43.0358 -78.9478 43° Northeast 190 219 2,200 -240 Descending Cleveland Center
10:39AM 43.0375 -78.8792 88° East 182 209 2,200 -120 Level Cleveland Center
10:40AM 43.0667 -78.8667 17° North 144 166 2,000 -540 Descending Buffalo TRACON
10:41AM 43.1167 -78.8833 346° North 134 154 1,200 -480 Descending Buffalo TRACON
10:43AM 43.1167 -78.9667 270° West 104 120 600 -300 Descending Buffalo TRACON